Terminal Aerodrome Forecast
Issued by NWS Blacksburg, VA

Home | Current Version | Previous Version | Text Only | Print | Product List | Glossary On
Versions: 1 2 3 4 5 6 7 8 9 10 11 12 13 14 15 16 17 18 19 20 21 22 23 24 25 26 27 28
000
FTUS41 KRNK 011127
TAFLYH
TAF
KLYH 011127Z 0112/0212 00000KT P6SM OVC025
     FM011400 09002KT 4SM -FZRAPL BR OVC007
     FM012200 20004KT 2SM BR OVC004
     FM020600 22003KT 4SM BR OVC025
     FM021000 24002KT 1SM BR OVC002=

USA.gov is the U.S. government's official web portal to all federal, state and local government web resources and services.